sensor_id;sensor_type;location;lat;lon;timestamp;temperature;humidity
81136;DHT22;70622;50.886;3.890;2024-01-30T00:02:39;10.20;99.90
81136;DHT22;70622;50.886;3.890;2024-01-30T00:05:08;10.20;99.90
81136;DHT22;70622;50.886;3.890;2024-01-30T00:07:54;10.20;99.90
81136;DHT22;70622;50.886;3.890;2024-01-30T00:10:22;10.20;99.90
81136;DHT22;70622;50.886;3.890;2024-01-30T00:12:48;10.30;99.90
81136;DHT22;70622;50.886;3.890;2024-01-30T00:15:13;10.20;99.90
81136;DHT22;70622;50.886;3.890;2024-01-30T00:17:48;10.30;99.90
81136;DHT22;70622;50.886;3.890;2024-01-30T00:20:33;10.30;99.90
81136;DHT22;70622;50.886;3.890;2024-01-30T00:22:59;10.30;99.90
81136;DHT22;70622;50.886;3.890;2024-01-30T00:25:28;10.30;99.90
81136;DHT22;70622;50.886;3.890;2024-01-30T00:27:58;10.30;99.90
81136;DHT22;70622;50.886;3.890;2024-01-30T00:30:30;10.40;99.90
81136;DHT22;70622;50.886;3.890;2024-01-30T00:33:15;10.50;99.90
81136;DHT22;70622;50.886;3.890;2024-01-30T00:36:01;10.50;99.90
81136;DHT22;70622;50.886;3.890;2024-01-30T00:38:49;10.50;99.90
81136;DHT22;70622;50.886;3.890;2024-01-30T00:41:18;10.40;99.90
81136;DHT22;70622;50.886;3.890;2024-01-30T00:44:03;10.40;99.90
81136;DHT22;70622;50.886;3.890;2024-01-30T00:46:58;10.40;99.90
81136;DHT22;70622;50.886;3.890;2024-01-30T00:50:03;10.40;99.90
81136;DHT22;70622;50.886;3.890;2024-01-30T00:52:32;10.30;99.90
81136;DHT22;70622;50.886;3.890;2024-01-30T00:55:37;10.20;99.90
81136;DHT22;70622;50.886;3.890;2024-01-30T00:58:43;10.20;99.90
81136;DHT22;70622;50.886;3.890;2024-01-30T01:01:28;10.20;99.90
81136;DHT22;70622;50.886;3.890;2024-01-30T01:04:14;10.20;99.90
81136;DHT22;70622;50.886;3.890;2024-01-30T01:06:59;10.30;99.90
81136;DHT22;70622;50.886;3.890;2024-01-30T01:09:54;10.20;99.90
81136;DHT22;70622;50.886;3.890;2024-01-30T01:12:39;10.10;99.90
81136;DHT22;70622;50.886;3.890;2024-01-30T01:15:28;10.00;99.90
81136;DHT22;70622;50.886;3.890;2024-01-30T01:17:56;10.00;99.90
81136;DHT22;70622;50.886;3.890;2024-01-30T01:20:42;10.10;99.90
81136;DHT22;70622;50.886;3.890;2024-01-30T01:23:17;10.00;99.90
81136;DHT22;70622;50.886;3.890;2024-01-30T01:25:51;10.00;99.90
81136;DHT22;70622;50.886;3.890;2024-01-30T01:28:39;10.00;99.90
81136;DHT22;70622;50.886;3.890;2024-01-30T01:31:22;10.00;99.90
81136;DHT22;70622;50.886;3.890;2024-01-30T01:34:14;10.00;99.90
81136;DHT22;70622;50.886;3.890;2024-01-30T01:37:19;10.00;99.90
81136;DHT22;70622;50.886;3.890;2024-01-30T01:39:47;9.90;99.90
81136;DHT22;70622;50.886;3.890;2024-01-30T01:42:32;9.90;99.90
81136;DHT22;70622;50.886;3.890;2024-01-30T01:45:38;9.90;99.90
81136;DHT22;70622;50.886;3.890;2024-01-30T01:48:13;9.90;99.90
81136;DHT22;70622;50.886;3.890;2024-01-30T01:50:58;9.90;99.90
81136;DHT22;70622;50.886;3.890;2024-01-30T01:54:04;9.90;99.90
81136;DHT22;70622;50.886;3.890;2024-01-30T01:56:50;10.00;99.90
81136;DHT22;70622;50.886;3.890;2024-01-30T01:59:16;10.00;99.90
81136;DHT22;70622;50.886;3.890;2024-01-30T02:02:02;10.10;99.90
81136;DHT22;70622;50.886;3.890;2024-01-30T02:04:47;10.10;99.90
81136;DHT22;70622;50.886;3.890;2024-01-30T02:07:12;10.10;99.90
81136;DHT22;70622;50.886;3.890;2024-01-30T02:09:41;10.20;99.90
81136;DHT22;70622;50.886;3.890;2024-01-30T02:12:30;10.20;99.90
81136;DHT22;70622;50.886;3.890;2024-01-30T02:14:58;10.20;99.90
81136;DHT22;70622;50.886;3.890;2024-01-30T02:17:33;10.30;99.90
81136;DHT22;70622;50.886;3.890;2024-01-30T02:20:18;10.30;99.90
81136;DHT22;70622;50.886;3.890;2024-01-30T02:23:04;10.30;99.90
81136;DHT22;70622;50.886;3.890;2024-01-30T02:26:09;10.30;99.90
81136;DHT22;70622;50.886;3.890;2024-01-30T02:28:44;10.30;99.90
81136;DHT22;70622;50.886;3.890;2024-01-30T02:31:30;10.30;99.90
81136;DHT22;70622;50.886;3.890;2024-01-30T02:33:55;10.30;99.90
81136;DHT22;70622;50.886;3.890;2024-01-30T02:36:44;10.30;99.90
81136;DHT22;70622;50.886;3.890;2024-01-30T02:39:12;10.30;99.90
81136;DHT22;70622;50.886;3.890;2024-01-30T02:42:01;10.40;99.90
81136;DHT22;70622;50.886;3.890;2024-01-30T02:44:26;10.40;99.90
81136;DHT22;70622;50.886;3.890;2024-01-30T02:47:32;10.40;99.90
81136;DHT22;70622;50.886;3.890;2024-01-30T02:50:37;10.50;99.90
81136;DHT22;70622;50.886;3.890;2024-01-30T02:53:23;10.40;99.90
81136;DHT22;70622;50.886;3.890;2024-01-30T02:56:08;10.30;99.90
81136;DHT22;70622;50.886;3.890;2024-01-30T02:58:54;10.40;99.90
81136;DHT22;70622;50.886;3.890;2024-01-30T03:01:46;10.50;99.90
81136;DHT22;70622;50.886;3.890;2024-01-30T03:04:11;10.50;99.90
81136;DHT22;70622;50.886;3.890;2024-01-30T03:06:44;10.50;99.90
81136;DHT22;70622;50.886;3.890;2024-01-30T03:09:30;10.50;99.90
81136;DHT22;70622;50.886;3.890;2024-01-30T03:12:05;10.40;99.90
81136;DHT22;70622;50.886;3.890;2024-01-30T03:15:10;10.40;99.90
81136;DHT22;70622;50.886;3.890;2024-01-30T03:18:15;10.40;99.90
81136;DHT22;70622;50.886;3.890;2024-01-30T03:20:41;10.40;99.90
81136;DHT22;70622;50.886;3.890;2024-01-30T03:23:26;10.40;99.90
81136;DHT22;70622;50.886;3.890;2024-01-30T03:26:21;10.40;99.90
81136;DHT22;70622;50.886;3.890;2024-01-30T03:28:49;10.40;99.90
81136;DHT22;70622;50.886;3.890;2024-01-30T03:31:15;10.40;99.90
81136;DHT22;70622;50.886;3.890;2024-01-30T03:33:41;10.40;99.90
81136;DHT22;70622;50.886;3.890;2024-01-30T03:36:07;10.40;99.90
81136;DHT22;70622;50.886;3.890;2024-01-30T03:38:33;10.40;99.90
81136;DHT22;70622;50.886;3.890;2024-01-30T03:40:58;10.40;99.90
81136;DHT22;70622;50.886;3.890;2024-01-30T03:43:24;10.40;99.90
81136;DHT22;70622;50.886;3.890;2024-01-30T03:45:50;10.40;99.90
81136;DHT22;70622;50.886;3.890;2024-01-30T03:48:15;10.30;99.90
81136;DHT22;70622;50.886;3.890;2024-01-30T03:50:42;10.30;99.90
81136;DHT22;70622;50.886;3.890;2024-01-30T03:53:08;10.30;99.90
81136;DHT22;70622;50.886;3.890;2024-01-30T03:55:33;10.30;99.90
81136;DHT22;70622;50.886;3.890;2024-01-30T03:57:59;10.20;99.90
81136;DHT22;70622;50.886;3.890;2024-01-30T04:00:24;10.20;99.90
81136;DHT22;70622;50.886;3.890;2024-01-30T04:02:50;10.20;99.90
81136;DHT22;70622;50.886;3.890;2024-01-30T04:05:16;10.10;99.90
81136;DHT22;70622;50.886;3.890;2024-01-30T04:07:42;10.10;99.90
81136;DHT22;70622;50.886;3.890;2024-01-30T04:10:09;10.10;99.90
81136;DHT22;70622;50.886;3.890;2024-01-30T04:12:35;10.10;99.90
81136;DHT22;70622;50.886;3.890;2024-01-30T04:15:00;10.10;99.90
81136;DHT22;70622;50.886;3.890;2024-01-30T04:17:26;10.10;99.90
81136;DHT22;70622;50.886;3.890;2024-01-30T04:19:55;10.10;99.90
81136;DHT22;70622;50.886;3.890;2024-01-30T04:22:20;10.10;99.90
81136;DHT22;70622;50.886;3.890;2024-01-30T04:24:46;10.20;99.90
81136;DHT22;70622;50.886;3.890;2024-01-30T04:27:11;10.10;99.90
81136;DHT22;70622;50.886;3.890;2024-01-30T04:29:37;10.10;99.90
81136;DHT22;70622;50.886;3.890;2024-01-30T04:32:03;10.20;99.90
81136;DHT22;70622;50.886;3.890;2024-01-30T04:34:28;10.10;99.90
81136;DHT22;70622;50.886;3.890;2024-01-30T04:36:54;10.20;99.90
81136;DHT22;70622;50.886;3.890;2024-01-30T04:39:22;10.20;99.90
81136;DHT22;70622;50.886;3.890;2024-01-30T04:41:48;10.20;99.90
81136;DHT22;70622;50.886;3.890;2024-01-30T04:44:17;10.20;99.90
81136;DHT22;70622;50.886;3.890;2024-01-30T04:46:43;10.20;99.90
81136;DHT22;70622;50.886;3.890;2024-01-30T04:49:11;10.20;99.90
81136;DHT22;70622;50.886;3.890;2024-01-30T04:51:37;10.30;99.90
81136;DHT22;70622;50.886;3.890;2024-01-30T04:54:02;10.30;99.90
81136;DHT22;70622;50.886;3.890;2024-01-30T04:56:28;10.30;99.90
81136;DHT22;70622;50.886;3.890;2024-01-30T04:58:54;10.30;99.90
81136;DHT22;70622;50.886;3.890;2024-01-30T05:01:19;10.30;99.90
81136;DHT22;70622;50.886;3.890;2024-01-30T05:03:47;10.20;99.90
81136;DHT22;70622;50.886;3.890;2024-01-30T05:06:13;10.20;99.90
81136;DHT22;70622;50.886;3.890;2024-01-30T05:08:48;10.20;99.90
81136;DHT22;70622;50.886;3.890;2024-01-30T05:11:14;10.30;99.90
81136;DHT22;70622;50.886;3.890;2024-01-30T05:13:42;10.20;99.90
81136;DHT22;70622;50.886;3.890;2024-01-30T05:16:08;10.20;99.90
81136;DHT22;70622;50.886;3.890;2024-01-30T05:18:33;10.20;99.90
81136;DHT22;70622;50.886;3.890;2024-01-30T05:21:39;10.20;99.90
81136;DHT22;70622;50.886;3.890;2024-01-30T05:24:36;10.20;99.90
81136;DHT22;70622;50.886;3.890;2024-01-30T05:27:25;10.30;99.90
81136;DHT22;70622;50.886;3.890;2024-01-30T05:30:14;10.30;99.90
81136;DHT22;70622;50.886;3.890;2024-01-30T05:32:48;10.30;99.90
81136;DHT22;70622;50.886;3.890;2024-01-30T05:35:18;10.20;99.90
81136;DHT22;70622;50.886;3.890;2024-01-30T05:38:24;10.30;99.90
81136;DHT22;70622;50.886;3.890;2024-01-30T05:41:12;10.20;99.90
81136;DHT22;70622;50.886;3.890;2024-01-30T05:44:17;10.20;99.90
81136;DHT22;70622;50.886;3.890;2024-01-30T05:47:06;10.10;99.90
81136;DHT22;70622;50.886;3.890;2024-01-30T05:50:11;10.10;99.90
81136;DHT22;70622;50.886;3.890;2024-01-30T05:52:49;10.10;99.90
81136;DHT22;70622;50.886;3.890;2024-01-30T05:55:54;10.10;99.90
81136;DHT22;70622;50.886;3.890;2024-01-30T05:59:02;10.10;99.90
81136;DHT22;70622;50.886;3.890;2024-01-30T06:02:05;10.20;99.90
81136;DHT22;70622;50.886;3.890;2024-01-30T06:04:40;10.30;99.90
81136;DHT22;70622;50.886;3.890;2024-01-30T06:07:45;10.40;99.90
81136;DHT22;70622;50.886;3.890;2024-01-30T06:10:51;10.40;99.90
81136;DHT22;70622;50.886;3.890;2024-01-30T06:13:43;10.50;99.90
81136;DHT22;70622;50.886;3.890;2024-01-30T07:30:22;11.00;99.90
81136;DHT22;70622;50.886;3.890;2024-01-30T07:32:48;11.00;99.90
81136;DHT22;70622;50.886;3.890;2024-01-30T07:35:14;11.10;99.90
81136;DHT22;70622;50.886;3.890;2024-01-30T07:37:39;11.20;99.90
81136;DHT22;70622;50.886;3.890;2024-01-30T07:40:05;11.20;99.90
81136;DHT22;70622;50.886;3.890;2024-01-30T07:42:32;11.20;99.90
81136;DHT22;70622;50.886;3.890;2024-01-30T07:44:57;11.20;99.90
81136;DHT22;70622;50.886;3.890;2024-01-30T07:47:26;11.20;99.90
81136;DHT22;70622;50.886;3.890;2024-01-30T07:49:52;11.20;99.90
81136;DHT22;70622;50.886;3.890;2024-01-30T07:52:18;11.20;99.90
81136;DHT22;70622;50.886;3.890;2024-01-30T07:54:43;11.20;99.90
81136;DHT22;70622;50.886;3.890;2024-01-30T07:57:15;11.20;99.90
81136;DHT22;70622;50.886;3.890;2024-01-30T07:59:42;11.30;99.90
81136;DHT22;70622;50.886;3.890;2024-01-30T08:02:09;11.40;99.90
81136;DHT22;70622;50.886;3.890;2024-01-30T08:04:35;11.40;99.90
81136;DHT22;70622;50.886;3.890;2024-01-30T08:07:00;11.30;99.90
81136;DHT22;70622;50.886;3.890;2024-01-30T08:09:26;11.30;99.90
81136;DHT22;70622;50.886;3.890;2024-01-30T08:11:52;11.30;99.90
81136;DHT22;70622;50.886;3.890;2024-01-30T08:14:17;11.20;99.90
81136;DHT22;70622;50.886;3.890;2024-01-30T08:16:43;11.40;99.90
81136;DHT22;70622;50.886;3.890;2024-01-30T08:19:08;11.40;99.90
81136;DHT22;70622;50.886;3.890;2024-01-30T08:21:34;11.30;99.90
81136;DHT22;70622;50.886;3.890;2024-01-30T08:24:04;11.10;99.90
81136;DHT22;70622;50.886;3.890;2024-01-30T08:26:31;11.20;99.90
81136;DHT22;70622;50.886;3.890;2024-01-30T08:28:57;11.20;99.90
81136;DHT22;70622;50.886;3.890;2024-01-30T08:31:22;11.20;99.90
81136;DHT22;70622;50.886;3.890;2024-01-30T08:33:48;11.20;99.90
81136;DHT22;70622;50.886;3.890;2024-01-30T08:36:14;11.20;99.90
81136;DHT22;70622;50.886;3.890;2024-01-30T08:38:39;11.10;99.90
81136;DHT22;70622;50.886;3.890;2024-01-30T08:41:05;11.20;99.90
81136;DHT22;70622;50.886;3.890;2024-01-30T08:43:30;11.20;99.90
81136;DHT22;70622;50.886;3.890;2024-01-30T08:45:58;11.30;99.90
81136;DHT22;70622;50.886;3.890;2024-01-30T08:48:25;11.30;99.90
81136;DHT22;70622;50.886;3.890;2024-01-30T08:50:50;11.20;99.90
81136;DHT22;70622;50.886;3.890;2024-01-30T08:53:16;11.30;99.90
81136;DHT22;70622;50.886;3.890;2024-01-30T08:55:41;11.20;99.90
81136;DHT22;70622;50.886;3.890;2024-01-30T08:58:07;11.20;99.90
81136;DHT22;70622;50.886;3.890;2024-01-30T09:00:33;11.10;99.90
81136;DHT22;70622;50.886;3.890;2024-01-30T09:02:58;11.10;99.90
81136;DHT22;70622;50.886;3.890;2024-01-30T09:05:24;11.20;99.90
81136;DHT22;70622;50.886;3.890;2024-01-30T09:07:53;11.10;99.90
81136;DHT22;70622;50.886;3.890;2024-01-30T09:10:19;11.10;99.90
81136;DHT22;70622;50.886;3.890;2024-01-30T09:12:44;11.10;99.90
81136;DHT22;70622;50.886;3.890;2024-01-30T09:15:10;11.20;99.90
81136;DHT22;70622;50.886;3.890;2024-01-30T09:17:35;11.20;99.90
81136;DHT22;70622;50.886;3.890;2024-01-30T09:20:01;11.30;99.90
81136;DHT22;70622;50.886;3.890;2024-01-30T09:22:26;11.30;99.90
81136;DHT22;70622;50.886;3.890;2024-01-30T09:24:52;11.40;99.90
81136;DHT22;70622;50.886;3.890;2024-01-30T09:27:17;11.40;99.90
81136;DHT22;70622;50.886;3.890;2024-01-30T09:29:43;11.50;99.90
81136;DHT22;70622;50.886;3.890;2024-01-30T09:32:08;11.40;99.90
81136;DHT22;70622;50.886;3.890;2024-01-30T09:34:34;11.50;99.90
81136;DHT22;70622;50.886;3.890;2024-01-30T09:37:00;11.50;99.90
81136;DHT22;70622;50.886;3.890;2024-01-30T09:39:26;11.50;99.90
81136;DHT22;70622;50.886;3.890;2024-01-30T09:44:37;11.60;99.90
81136;DHT22;70622;50.886;3.890;2024-01-30T09:47:03;11.60;99.90
81136;DHT22;70622;50.886;3.890;2024-01-30T09:49:31;11.60;99.90
81136;DHT22;70622;50.886;3.890;2024-01-30T09:51:57;11.70;99.90
81136;DHT22;70622;50.886;3.890;2024-01-30T09:54:23;11.70;99.90
81136;DHT22;70622;50.886;3.890;2024-01-30T09:56:48;11.70;99.90
81136;DHT22;70622;50.886;3.890;2024-01-30T09:59:14;11.70;99.90
81136;DHT22;70622;50.886;3.890;2024-01-30T10:01:40;11.70;99.90
81136;DHT22;70622;50.886;3.890;2024-01-30T10:04:06;11.60;99.90
81136;DHT22;70622;50.886;3.890;2024-01-30T10:06:32;11.50;99.90
81136;DHT22;70622;50.886;3.890;2024-01-30T10:08:58;11.50;99.90
81136;DHT22;70622;50.886;3.890;2024-01-30T10:11:23;11.40;99.90
81136;DHT22;70622;50.886;3.890;2024-01-30T10:13:49;11.30;99.90
81136;DHT22;70622;50.886;3.890;2024-01-30T10:16:14;11.10;99.90
81136;DHT22;70622;50.886;3.890;2024-01-30T10:18:42;11.20;99.90
81136;DHT22;70622;50.886;3.890;2024-01-30T10:21:08;11.10;99.90
81136;DHT22;70622;50.886;3.890;2024-01-30T10:23:34;11.10;99.90
81136;DHT22;70622;50.886;3.890;2024-01-30T10:25:59;11.00;99.90
81136;DHT22;70622;50.886;3.890;2024-01-30T10:28:27;10.90;99.90
81136;DHT22;70622;50.886;3.890;2024-01-30T10:30:58;10.80;99.90
81136;DHT22;70622;50.886;3.890;2024-01-30T10:33:25;10.70;99.90
81136;DHT22;70622;50.886;3.890;2024-01-30T10:35:51;10.70;99.90
81136;DHT22;70622;50.886;3.890;2024-01-30T10:38:16;10.90;99.90
81136;DHT22;70622;50.886;3.890;2024-01-30T10:40:47;10.90;99.90
81136;DHT22;70622;50.886;3.890;2024-01-30T10:43:17;11.00;99.90
81136;DHT22;70622;50.886;3.890;2024-01-30T10:45:45;10.90;99.90
81136;DHT22;70622;50.886;3.890;2024-01-30T10:48:14;11.00;99.90
81136;DHT22;70622;50.886;3.890;2024-01-30T10:50:43;10.90;99.90
81136;DHT22;70622;50.886;3.890;2024-01-30T10:53:10;10.90;99.90
81136;DHT22;70622;50.886;3.890;2024-01-30T10:55:36;10.90;99.90
81136;DHT22;70622;50.886;3.890;2024-01-30T10:58:02;10.80;99.90
81136;DHT22;70622;50.886;3.890;2024-01-30T11:00:29;10.80;99.90
81136;DHT22;70622;50.886;3.890;2024-01-30T11:03:01;10.70;99.90
81136;DHT22;70622;50.886;3.890;2024-01-30T11:05:28;10.70;99.90
81136;DHT22;70622;50.886;3.890;2024-01-30T11:07:55;10.70;99.90
81136;DHT22;70622;50.886;3.890;2024-01-30T11:10:24;10.70;99.90
81136;DHT22;70622;50.886;3.890;2024-01-30T11:12:50;10.70;99.90
81136;DHT22;70622;50.886;3.890;2024-01-30T11:15:17;10.90;99.90
81136;DHT22;70622;50.886;3.890;2024-01-30T11:20:27;11.20;99.90
81136;DHT22;70622;50.886;3.890;2024-01-30T11:22:56;11.30;99.90
81136;DHT22;70622;50.886;3.890;2024-01-30T11:25:22;11.50;99.90
81136;DHT22;70622;50.886;3.890;2024-01-30T11:27:53;11.50;99.90
81136;DHT22;70622;50.886;3.890;2024-01-30T11:30:22;11.50;99.90
81136;DHT22;70622;50.886;3.890;2024-01-30T11:32:58;11.70;99.90
81136;DHT22;70622;50.886;3.890;2024-01-30T11:35:24;11.60;99.90
81136;DHT22;70622;50.886;3.890;2024-01-30T11:37:49;11.50;99.90
81136;DHT22;70622;50.886;3.890;2024-01-30T11:40:15;11.50;99.90
81136;DHT22;70622;50.886;3.890;2024-01-30T11:42:41;11.60;99.90
81136;DHT22;70622;50.886;3.890;2024-01-30T11:45:07;11.50;99.90
81136;DHT22;70622;50.886;3.890;2024-01-30T11:47:34;11.50;99.90
81136;DHT22;70622;50.886;3.890;2024-01-30T11:50:00;11.30;99.90
81136;DHT22;70622;50.886;3.890;2024-01-30T11:52:48;11.20;99.90
81136;DHT22;70622;50.886;3.890;2024-01-30T11:55:14;11.30;99.90
81136;DHT22;70622;50.886;3.890;2024-01-30T11:57:40;11.30;99.90
81136;DHT22;70622;50.886;3.890;2024-01-30T12:00:13;11.30;99.90
81136;DHT22;70622;50.886;3.890;2024-01-30T12:02:40;11.20;99.90
81136;DHT22;70622;50.886;3.890;2024-01-30T12:05:05;11.10;99.90
81136;DHT22;70622;50.886;3.890;2024-01-30T12:07:31;11.00;99.90
81136;DHT22;70622;50.886;3.890;2024-01-30T12:09:57;11.10;99.90
81136;DHT22;70622;50.886;3.890;2024-01-30T12:12:24;11.20;99.90
81136;DHT22;70622;50.886;3.890;2024-01-30T12:14:49;11.30;99.90
81136;DHT22;70622;50.886;3.890;2024-01-30T12:17:28;11.30;99.90
81136;DHT22;70622;50.886;3.890;2024-01-30T12:22:47;11.10;99.90
81136;DHT22;70622;50.886;3.890;2024-01-30T12:27:50;10.90;99.90
81136;DHT22;70622;50.886;3.890;2024-01-30T12:30:16;10.90;99.90
81136;DHT22;70622;50.886;3.890;2024-01-30T12:32:43;10.90;99.90
81136;DHT22;70622;50.886;3.890;2024-01-30T12:35:12;10.90;99.90
81136;DHT22;70622;50.886;3.890;2024-01-30T12:37:42;10.90;99.90
81136;DHT22;70622;50.886;3.890;2024-01-30T12:40:09;10.90;99.90
81136;DHT22;70622;50.886;3.890;2024-01-30T12:42:35;10.70;99.90
81136;DHT22;70622;50.886;3.890;2024-01-30T12:45:04;10.80;99.90
81136;DHT22;70622;50.886;3.890;2024-01-30T12:47:29;10.90;99.90
81136;DHT22;70622;50.886;3.890;2024-01-30T12:49:55;10.90;99.90
81136;DHT22;70622;50.886;3.890;2024-01-30T12:52:21;10.90;99.90
81136;DHT22;70622;50.886;3.890;2024-01-30T12:54:47;10.80;99.90
81136;DHT22;70622;50.886;3.890;2024-01-30T12:57:12;10.70;99.90
81136;DHT22;70622;50.886;3.890;2024-01-30T12:59:38;10.70;99.90
81136;DHT22;70622;50.886;3.890;2024-01-30T13:02:04;10.70;99.90
81136;DHT22;70622;50.886;3.890;2024-01-30T13:04:30;10.70;99.90
81136;DHT22;70622;50.886;3.890;2024-01-30T13:06:56;10.70;99.90
81136;DHT22;70622;50.886;3.890;2024-01-30T13:09:22;10.60;99.90
81136;DHT22;70622;50.886;3.890;2024-01-30T13:11:48;10.60;99.90
81136;DHT22;70622;50.886;3.890;2024-01-30T13:14:14;10.70;99.90
81136;DHT22;70622;50.886;3.890;2024-01-30T13:16:40;10.60;99.90
81136;DHT22;70622;50.886;3.890;2024-01-30T13:19:05;10.50;99.90
81136;DHT22;70622;50.886;3.890;2024-01-30T13:21:31;10.50;99.90
81136;DHT22;70622;50.886;3.890;2024-01-30T13:23:58;10.50;99.90
81136;DHT22;70622;50.886;3.890;2024-01-30T13:26:23;10.60;99.90
81136;DHT22;70622;50.886;3.890;2024-01-30T13:28:49;10.60;99.90
81136;DHT22;70622;50.886;3.890;2024-01-30T13:31:14;10.60;99.90
81136;DHT22;70622;50.886;3.890;2024-01-30T13:33:40;10.60;99.90
81136;DHT22;70622;50.886;3.890;2024-01-30T13:36:07;10.50;99.90
81136;DHT22;70622;50.886;3.890;2024-01-30T13:38:32;10.50;99.90
81136;DHT22;70622;50.886;3.890;2024-01-30T13:40:59;10.40;99.90
81136;DHT22;70622;50.886;3.890;2024-01-30T13:43:24;10.20;99.90
81136;DHT22;70622;50.886;3.890;2024-01-30T13:45:50;10.10;99.90
81136;DHT22;70622;50.886;3.890;2024-01-30T13:48:15;10.00;99.90
81136;DHT22;70622;50.886;3.890;2024-01-30T13:50:41;10.10;99.90
81136;DHT22;70622;50.886;3.890;2024-01-30T13:53:09;10.10;99.90
81136;DHT22;70622;50.886;3.890;2024-01-30T13:55:34;10.10;99.90
81136;DHT22;70622;50.886;3.890;2024-01-30T13:58:00;10.10;99.90
81136;DHT22;70622;50.886;3.890;2024-01-30T14:00:27;10.00;99.90
81136;DHT22;70622;50.886;3.890;2024-01-30T14:02:53;10.00;99.90
81136;DHT22;70622;50.886;3.890;2024-01-30T14:05:23;10.10;99.90
81136;DHT22;70622;50.886;3.890;2024-01-30T14:07:49;10.20;99.90
81136;DHT22;70622;50.886;3.890;2024-01-30T14:10:18;10.20;99.90
81136;DHT22;70622;50.886;3.890;2024-01-30T14:12:46;10.20;99.90
81136;DHT22;70622;50.886;3.890;2024-01-30T14:15:13;10.20;99.90
81136;DHT22;70622;50.886;3.890;2024-01-30T14:17:46;10.10;99.90
81136;DHT22;70622;50.886;3.890;2024-01-30T14:20:16;10.00;99.90
81136;DHT22;70622;50.886;3.890;2024-01-30T14:22:42;9.90;99.90
81136;DHT22;70622;50.886;3.890;2024-01-30T14:25:09;9.90;99.90
81136;DHT22;70622;50.886;3.890;2024-01-30T14:27:36;9.90;99.90
81136;DHT22;70622;50.886;3.890;2024-01-30T14:30:02;9.90;99.90
81136;DHT22;70622;50.886;3.890;2024-01-30T14:32:28;10.00;99.90
81136;DHT22;70622;50.886;3.890;2024-01-30T14:34:54;10.00;99.90
81136;DHT22;70622;50.886;3.890;2024-01-30T14:37:20;10.10;99.90
81136;DHT22;70622;50.886;3.890;2024-01-30T14:39:58;10.00;99.90
81136;DHT22;70622;50.886;3.890;2024-01-30T14:42:29;10.10;99.90
81136;DHT22;70622;50.886;3.890;2024-01-30T14:45:01;10.00;99.90
81136;DHT22;70622;50.886;3.890;2024-01-30T14:47:26;10.00;99.90
81136;DHT22;70622;50.886;3.890;2024-01-30T14:49:52;10.00;99.90
81136;DHT22;70622;50.886;3.890;2024-01-30T14:52:17;10.00;99.90
81136;DHT22;70622;50.886;3.890;2024-01-30T14:54:43;9.90;99.90
81136;DHT22;70622;50.886;3.890;2024-01-30T14:57:09;10.10;99.90
81136;DHT22;70622;50.886;3.890;2024-01-30T14:59:35;10.10;99.90
81136;DHT22;70622;50.886;3.890;2024-01-30T15:02:00;10.00;99.90
81136;DHT22;70622;50.886;3.890;2024-01-30T15:04:26;10.00;99.90
81136;DHT22;70622;50.886;3.890;2024-01-30T15:06:52;10.00;99.90
81136;DHT22;70622;50.886;3.890;2024-01-30T15:09:17;9.90;99.90
81136;DHT22;70622;50.886;3.890;2024-01-30T15:11:46;9.90;99.90
81136;DHT22;70622;50.886;3.890;2024-01-30T15:14:12;9.90;99.90
81136;DHT22;70622;50.886;3.890;2024-01-30T15:16:37;9.90;99.90
81136;DHT22;70622;50.886;3.890;2024-01-30T15:19:03;10.00;99.90
81136;DHT22;70622;50.886;3.890;2024-01-30T15:21:30;10.00;99.90
81136;DHT22;70622;50.886;3.890;2024-01-30T15:23:56;9.80;99.90
81136;DHT22;70622;50.886;3.890;2024-01-30T15:26:21;9.80;99.90
81136;DHT22;70622;50.886;3.890;2024-01-30T15:28:47;9.90;99.90
81136;DHT22;70622;50.886;3.890;2024-01-30T15:31:13;9.90;99.90
81136;DHT22;70622;50.886;3.890;2024-01-30T15:33:38;9.80;99.90
81136;DHT22;70622;50.886;3.890;2024-01-30T15:36:04;9.60;99.90
81136;DHT22;70622;50.886;3.890;2024-01-30T15:38:29;9.50;99.90
81136;DHT22;70622;50.886;3.890;2024-01-30T15:40:55;9.40;99.90
81136;DHT22;70622;50.886;3.890;2024-01-30T15:43:21;9.40;99.90
81136;DHT22;70622;50.886;3.890;2024-01-30T15:45:48;9.30;99.90
81136;DHT22;70622;50.886;3.890;2024-01-30T15:48:13;9.20;99.90
81136;DHT22;70622;50.886;3.890;2024-01-30T15:50:39;9.20;99.90
81136;DHT22;70622;50.886;3.890;2024-01-30T15:53:05;9.20;99.90
81136;DHT22;70622;50.886;3.890;2024-01-30T15:55:30;9.10;99.90
81136;DHT22;70622;50.886;3.890;2024-01-30T15:57:56;9.10;99.90
81136;DHT22;70622;50.886;3.890;2024-01-30T16:00:21;9.00;99.90
81136;DHT22;70622;50.886;3.890;2024-01-30T16:02:47;9.10;99.90
81136;DHT22;70622;50.886;3.890;2024-01-30T16:05:12;9.10;99.90
81136;DHT22;70622;50.886;3.890;2024-01-30T16:07:38;9.10;99.90
81136;DHT22;70622;50.886;3.890;2024-01-30T16:10:07;9.10;99.90
81136;DHT22;70622;50.886;3.890;2024-01-30T16:38:36;8.70;99.90
81136;DHT22;70622;50.886;3.890;2024-01-30T16:41:02;8.70;99.90
81136;DHT22;70622;50.886;3.890;2024-01-30T16:43:28;8.70;99.90
81136;DHT22;70622;50.886;3.890;2024-01-30T16:45:53;8.80;99.90
81136;DHT22;70622;50.886;3.890;2024-01-30T16:48:19;8.80;99.90
81136;DHT22;70622;50.886;3.890;2024-01-30T16:50:47;8.80;99.90
81136;DHT22;70622;50.886;3.890;2024-01-30T16:53:14;8.80;99.90
81136;DHT22;70622;50.886;3.890;2024-01-30T16:55:39;8.80;99.90
81136;DHT22;70622;50.886;3.890;2024-01-30T16:58:05;8.80;99.90
81136;DHT22;70622;50.886;3.890;2024-01-30T17:00:30;8.70;99.90
81136;DHT22;70622;50.886;3.890;2024-01-30T17:02:56;8.70;99.90
81136;DHT22;70622;50.886;3.890;2024-01-30T17:05:31;8.70;99.90
81136;DHT22;70622;50.886;3.890;2024-01-30T17:07:57;8.80;99.90
81136;DHT22;70622;50.886;3.890;2024-01-30T17:10:26;8.80;99.90
81136;DHT22;70622;50.886;3.890;2024-01-30T17:12:51;8.80;99.90
81136;DHT22;70622;50.886;3.890;2024-01-30T17:15:17;8.90;99.90
81136;DHT22;70622;50.886;3.890;2024-01-30T17:17:43;8.90;99.90
81136;DHT22;70622;50.886;3.890;2024-01-30T17:20:09;8.90;99.90
81136;DHT22;70622;50.886;3.890;2024-01-30T17:22:37;8.90;99.90
81136;DHT22;70622;50.886;3.890;2024-01-30T17:25:03;8.80;99.90
81136;DHT22;70622;50.886;3.890;2024-01-30T17:27:29;8.80;99.90
81136;DHT22;70622;50.886;3.890;2024-01-30T17:29:55;8.80;99.90
81136;DHT22;70622;50.886;3.890;2024-01-30T17:32:20;8.80;99.90
81136;DHT22;70622;50.886;3.890;2024-01-30T17:34:46;8.80;99.90
81136;DHT22;70622;50.886;3.890;2024-01-30T17:37:11;8.70;99.90
81136;DHT22;70622;50.886;3.890;2024-01-30T17:39:37;8.80;99.90
81136;DHT22;70622;50.886;3.890;2024-01-30T17:42:02;8.80;99.90
81136;DHT22;70622;50.886;3.890;2024-01-30T17:44:28;8.80;99.90
81136;DHT22;70622;50.886;3.890;2024-01-30T17:46:53;8.80;99.90
81136;DHT22;70622;50.886;3.890;2024-01-30T17:49:20;8.80;99.90